createdAt,value
2018-04-12T00:00:22.926Z,26.57
2018-04-12T00:02:50.450Z,21.27
2018-04-12T00:05:18.141Z,23.60
2018-04-12T00:07:45.656Z,26.40
2018-04-12T00:10:13.845Z,25.40
2018-04-12T00:12:42.249Z,22.57
2018-04-12T00:15:09.911Z,26.13
2018-04-12T00:17:37.422Z,20.93
2018-04-12T00:20:04.979Z,24.33
2018-04-12T00:22:32.495Z,25.67
2018-04-12T00:24:59.999Z,23.80
2018-04-12T00:27:27.500Z,24.97
2018-04-12T00:29:55.847Z,23.67
2018-04-12T00:32:23.421Z,23.23
2018-04-12T00:34:50.932Z,23.67
2018-04-12T00:37:18.475Z,26.10
2018-04-12T00:39:46.214Z,25.03
2018-04-12T00:42:14.612Z,25.03
2018-04-12T00:44:42.651Z,24.93
2018-04-12T00:47:10.830Z,25.97
2018-04-12T00:49:38.471Z,25.40
2018-04-12T00:52:06.490Z,24.50
2018-04-12T00:54:34.202Z,26.50
2018-04-12T00:57:02.036Z,25.37
2018-04-12T00:59:30.045Z,23.97
2018-04-12T01:01:57.645Z,25.07
2018-04-12T01:04:25.229Z,26.57
2018-04-12T01:06:52.798Z,24.73
2018-04-12T01:09:21.076Z,26.33
2018-04-12T01:11:48.700Z,26.37
2018-04-12T01:14:16.989Z,22.27
2018-04-12T01:16:44.695Z,24.90
2018-04-12T01:19:12.203Z,23.70
2018-04-12T01:21:40.188Z,27.47
2018-04-12T01:24:07.761Z,27.33
2018-04-12T01:26:35.577Z,25.63
2018-04-12T01:29:03.257Z,26.50
2018-04-12T01:31:31.640Z,17.87
2018-04-12T01:33:59.169Z,27.80
2018-04-12T01:36:26.905Z,28.47
2018-04-12T01:38:54.400Z,23.50
2018-04-12T01:41:21.930Z,24.77
2018-04-12T01:43:49.693Z,27.90
2018-04-12T01:46:17.190Z,25.47
2018-04-12T01:48:45.567Z,26.80
2018-04-12T01:51:13.922Z,24.43
2018-04-12T01:53:41.527Z,25.17
2018-04-12T01:56:09.028Z,26.30
2018-04-12T01:58:36.538Z,27.47
2018-04-12T02:01:04.845Z,25.50
2018-04-12T02:03:32.396Z,28.17
2018-04-12T02:05:59.910Z,23.87
2018-04-12T02:08:28.189Z,21.17
2018-04-12T02:10:55.847Z,26.23
2018-04-12T02:13:23.370Z,25.90
2018-04-12T02:15:50.878Z,26.37
2018-04-12T02:18:19.163Z,21.43
2018-04-12T02:20:46.793Z,26.83
2018-04-12T02:23:15.214Z,28.50
2018-04-12T02:25:43.190Z,26.23
2018-04-12T02:28:10.757Z,27.77
2018-04-12T02:30:38.323Z,27.27
2018-04-12T02:33:06.470Z,27.40
2018-04-12T02:35:33.989Z,27.10
2018-04-12T02:38:02.432Z,25.83
2018-04-12T02:40:29.933Z,28.50
2018-04-12T02:42:57.461Z,21.67
2018-04-12T02:45:25.060Z,28.27
2018-04-12T02:47:52.616Z,29.53
2018-04-12T02:50:20.158Z,26.73
2018-04-12T02:52:47.703Z,28.13
2018-04-12T02:55:15.220Z,28.93
2018-04-12T02:57:42.921Z,27.67
2018-04-12T03:00:10.504Z,26.10
2018-04-12T03:02:38.009Z,27.47
2018-04-12T03:05:06.279Z,22.70
2018-04-12T03:07:33.812Z,28.17
2018-04-12T03:10:01.845Z,25.37
2018-04-12T03:12:29.450Z,28.80
2018-04-12T03:14:57.265Z,26.20
2018-04-12T03:17:24.766Z,26.20
2018-04-12T03:19:52.474Z,27.63
2018-04-12T03:22:20.160Z,28.30
2018-04-12T03:24:47.757Z,28.07
2018-04-12T03:27:15.364Z,29.33
2018-04-12T03:29:42.915Z,28.43
2018-04-12T03:32:10.996Z,29.67
2018-04-12T03:34:38.512Z,28.03
2018-04-12T03:37:06.004Z,26.67
2018-04-12T03:39:34.282Z,28.87
2018-04-12T03:42:02.056Z,29.23
2018-04-12T03:44:29.600Z,31.00
2018-04-12T03:46:58.180Z,26.07
2018-04-12T03:49:26.512Z,28.87
2018-04-12T03:51:54.100Z,29.97
2018-04-12T03:54:21.852Z,29.93
2018-04-12T03:56:49.592Z,23.63
2018-04-12T03:59:17.104Z,31.20
2018-04-12T04:01:44.640Z,28.23
2018-04-12T04:04:12.168Z,25.50
2018-04-12T04:06:40.025Z,23.80
2018-04-12T04:09:07.574Z,25.43
2018-04-12T04:11:35.082Z,26.63
2018-04-12T04:14:02.886Z,30.53
2018-04-12T04:16:43.018Z,29.23
2018-04-12T04:19:22.345Z,29.30
2018-04-12T04:21:50.744Z,29.40
2018-04-12T04:24:18.656Z,24.90
2018-04-12T04:26:46.237Z,30.60
2018-04-12T04:29:13.835Z,27.80
2018-04-12T04:31:41.799Z,30.37
2018-04-12T04:34:09.382Z,29.77
2018-04-12T04:36:37.011Z,31.50
2018-04-12T04:39:05.383Z,27.50
2018-04-12T04:41:32.914Z,21.67
2018-04-12T04:44:00.557Z,25.40
2018-04-12T04:46:28.883Z,29.57
2018-04-12T04:48:56.416Z,29.00
2018-04-12T04:51:23.959Z,26.33
2018-04-12T04:53:51.654Z,18.13
2018-04-12T04:56:19.519Z,25.10
2018-04-12T04:58:47.041Z,28.33
2018-04-12T05:01:14.539Z,24.77
2018-04-12T05:03:42.105Z,27.20
2018-04-12T05:06:09.620Z,25.40
2018-04-12T05:08:37.449Z,27.90
2018-04-12T05:11:05.310Z,24.57
2018-04-12T05:13:32.899Z,29.03
2018-04-12T05:16:01.236Z,25.67
2018-04-12T05:18:28.763Z,26.10
2018-04-12T05:20:57.041Z,25.80
2018-04-12T05:23:24.557Z,24.07
2018-04-12T05:25:52.235Z,24.90
2018-04-12T05:28:19.750Z,25.33
2018-04-12T05:30:47.260Z,25.23
2018-04-12T05:33:14.856Z,26.40
2018-04-12T05:35:42.502Z,26.23
2018-04-12T05:38:10.154Z,23.97
2018-04-12T05:40:37.824Z,24.53
2018-04-12T05:43:05.366Z,23.43
2018-04-12T05:45:32.905Z,23.17
2018-04-12T05:48:01.798Z,25.27
2018-04-12T05:50:30.082Z,23.43
2018-04-12T05:52:57.669Z,25.03
2018-04-12T05:55:25.208Z,24.20
2018-04-12T05:57:52.737Z,24.77
2018-04-12T06:00:20.264Z,24.00
2018-04-12T06:02:47.808Z,22.87
2018-04-12T06:05:15.751Z,24.33
2018-04-12T06:07:43.457Z,23.80
2018-04-12T06:10:11.030Z,24.83
2018-04-12T06:12:38.589Z,23.03
2018-04-12T06:15:06.126Z,22.60
2018-04-12T06:17:34.464Z,22.83
2018-04-12T06:20:03.209Z,22.60
2018-04-12T06:22:30.760Z,20.53
2018-04-12T06:24:58.441Z,21.73
2018-04-12T06:27:27.199Z,21.53
2018-04-12T06:29:54.807Z,21.57
2018-04-12T06:32:22.327Z,21.30
2018-04-12T06:34:50.037Z,21.93
2018-04-12T06:37:18.056Z,20.80
2018-04-12T06:39:45.579Z,21.33
2018-04-12T06:42:13.251Z,21.07
2018-04-12T06:44:40.748Z,20.43
2018-04-12T06:47:08.294Z,22.33
2018-04-12T06:49:36.571Z,21.00
2018-04-12T06:52:05.386Z,21.70
2018-04-12T06:54:33.130Z,20.87
2018-04-12T06:57:00.647Z,21.50
2018-04-12T06:59:28.162Z,20.77
2018-04-12T07:01:55.743Z,20.63
2018-04-12T07:04:23.627Z,21.20
2018-04-12T07:06:51.970Z,20.33
2018-04-12T07:09:19.544Z,20.67
2018-04-12T07:11:47.162Z,19.50
2018-04-12T07:14:14.847Z,21.73
2018-04-12T07:16:42.462Z,20.67
2018-04-12T07:19:10.470Z,20.70
2018-04-12T07:21:37.957Z,20.90
2018-04-12T07:24:05.508Z,18.60
2018-04-12T07:26:33.128Z,20.60
2018-04-12T07:29:01.382Z,21.00
2018-04-12T07:31:29.657Z,19.97
2018-04-12T07:33:57.180Z,17.87
2018-04-12T07:36:24.698Z,20.83
2018-04-12T07:38:52.478Z,14.40
2018-04-12T07:41:20.662Z,19.73
2018-04-12T07:43:48.187Z,17.83
2018-04-12T07:46:15.698Z,18.90
2018-04-12T07:48:43.209Z,19.97
2018-04-12T07:51:11.663Z,19.40
2018-04-12T07:53:39.241Z,20.17
2018-04-12T07:56:07.543Z,18.80
2018-04-12T07:58:35.078Z,17.23
2018-04-12T08:01:02.670Z,18.20
2018-04-12T08:03:30.251Z,17.17
2018-04-12T08:05:57.762Z,19.07
2018-04-12T08:08:26.061Z,19.43
2018-04-12T08:10:53.593Z,19.23
2018-04-12T08:13:21.186Z,16.93
2018-04-12T08:15:49.176Z,18.50
2018-04-12T08:18:16.699Z,18.23
2018-04-12T08:20:44.974Z,18.47
2018-04-12T08:23:12.689Z,17.77
2018-04-12T08:25:40.206Z,18.00
2018-04-12T08:28:08.648Z,17.77
2018-04-12T08:30:36.198Z,13.33
2018-04-12T08:33:03.710Z,14.33
2018-04-12T08:35:31.251Z,16.23
2018-04-12T08:37:59.616Z,16.03
2018-04-12T08:40:27.141Z,18.20
2018-04-12T08:42:54.888Z,18.57
2018-04-12T08:45:22.427Z,19.27
2018-04-12T08:47:50.786Z,17.63
2018-04-12T08:50:19.059Z,18.13
2018-04-12T08:52:47.689Z,17.93
2018-04-12T08:55:15.252Z,17.60
2018-04-12T08:57:42.775Z,17.20
2018-04-12T09:00:11.908Z,18.90
2018-04-12T09:02:39.424Z,19.27
2018-04-12T09:05:06.936Z,19.10
2018-04-12T09:07:34.538Z,18.13
2018-04-12T09:10:02.838Z,16.83
2018-04-12T09:12:30.619Z,17.23
2018-04-12T09:14:58.319Z,17.97
2018-04-12T09:17:25.904Z,17.77
2018-04-12T09:19:53.625Z,17.60
2018-04-12T09:22:21.225Z,17.87
2018-04-12T09:24:48.756Z,17.17
2018-04-12T09:27:17.211Z,16.67
2018-04-12T09:29:44.925Z,16.57
2018-04-12T09:32:12.446Z,16.10
2018-04-12T09:34:40.166Z,17.30
2018-04-12T09:37:08.584Z,16.67
2018-04-12T09:39:36.158Z,17.20
2018-04-12T09:42:03.766Z,16.97
2018-04-12T09:44:31.340Z,15.63
2018-04-12T09:46:59.138Z,16.83
2018-04-12T09:49:26.693Z,16.13
2018-04-12T09:51:54.968Z,15.87
2018-04-12T09:54:23.537Z,16.23
2018-04-12T09:56:51.111Z,14.97
2018-04-12T09:59:18.658Z,15.10
2018-04-12T10:01:52.168Z,16.40
2018-04-12T10:04:19.752Z,16.53
2018-04-12T10:06:52.513Z,14.17
2018-04-12T10:09:20.034Z,15.07
2018-04-12T10:11:48.340Z,15.33
2018-04-12T10:14:16.140Z,14.63
2018-04-12T10:16:43.674Z,15.73
2018-04-12T10:19:11.191Z,15.23
2018-04-12T10:21:39.672Z,14.43
2018-04-12T10:24:07.142Z,15.27
2018-04-12T10:26:34.674Z,14.23
2018-04-12T10:29:02.264Z,11.77
2018-04-12T10:31:29.812Z,13.80
2018-04-12T10:33:57.328Z,13.73
2018-04-12T10:36:25.035Z,11.53
2018-04-12T10:38:52.965Z,10.87
2018-04-12T10:41:21.087Z,11.60
2018-04-12T10:43:48.604Z,12.93
2018-04-12T10:46:16.123Z,13.67
2018-04-12T10:48:43.688Z,14.23
2018-04-12T10:51:11.872Z,13.47
2018-04-12T10:53:39.433Z,13.93
2018-04-12T10:56:06.970Z,12.30
2018-04-12T10:58:34.808Z,11.57
2018-04-12T11:01:02.401Z,12.63
2018-04-12T11:03:29.918Z,13.80
2018-04-12T11:05:57.507Z,12.43
2018-04-12T11:08:25.816Z,13.67
2018-04-12T11:10:53.585Z,12.23
2018-04-12T11:13:21.140Z,13.10
2018-04-12T11:15:48.760Z,12.50
2018-04-12T11:18:16.384Z,11.63
2018-04-12T11:20:43.868Z,11.97
2018-04-12T11:23:14.391Z,12.30
2018-04-12T11:25:42.819Z,9.90
2018-04-12T11:28:10.425Z,10.20
2018-04-12T11:30:38.905Z,10.47
2018-04-12T11:33:06.468Z,9.33
2018-04-12T11:35:34.073Z,9.70
2018-04-12T11:38:01.780Z,10.17
2018-04-12T11:40:29.355Z,9.13
2018-04-12T11:42:57.010Z,8.80
2018-04-12T11:45:24.542Z,8.43
2018-04-12T11:47:52.405Z,7.50
2018-04-12T11:50:20.713Z,6.33
2018-04-12T11:52:48.250Z,6.87
2018-04-12T11:55:15.917Z,7.33
2018-04-12T11:57:43.423Z,7.30
2018-04-12T12:00:11.041Z,7.03
2018-04-12T12:02:38.561Z,6.67
2018-04-12T12:05:06.873Z,7.87
2018-04-12T12:07:34.449Z,6.27
2018-04-12T12:10:02.012Z,7.03
2018-04-12T12:12:29.578Z,7.03
2018-04-12T12:14:57.130Z,5.60
2018-04-12T12:17:24.663Z,6.67
2018-04-12T12:19:52.428Z,6.40
2018-04-12T12:22:19.963Z,6.90
2018-04-12T12:24:47.582Z,6.40
2018-04-12T12:27:15.127Z,5.60
2018-04-12T12:29:42.648Z,7.00
2018-04-12T12:32:10.591Z,7.37
2018-04-12T12:34:38.238Z,6.40
2018-04-12T12:37:08.311Z,5.90
2018-04-12T12:39:35.784Z,5.40
2018-04-12T12:42:03.295Z,6.17
2018-04-12T12:44:36.808Z,5.70
2018-04-12T12:47:04.403Z,6.47
2018-04-12T12:49:37.895Z,5.97
2018-04-12T12:52:05.745Z,5.70
2018-04-12T12:54:38.938Z,5.90
2018-04-12T12:57:06.460Z,6.37
2018-04-12T12:59:33.966Z,5.43
2018-04-12T13:02:01.504Z,5.43
2018-04-12T13:04:34.827Z,5.83
2018-04-12T13:07:02.560Z,6.13
2018-04-12T13:09:31.040Z,6.23
2018-04-12T13:11:58.642Z,4.63
2018-04-12T13:14:32.031Z,5.93
2018-04-12T13:17:05.445Z,6.30
2018-04-12T13:19:32.990Z,6.03
2018-04-12T13:22:00.497Z,5.77
2018-04-12T13:24:34.166Z,6.00
2018-04-12T13:27:02.505Z,5.90
2018-04-12T13:29:35.647Z,5.50
2018-04-12T13:32:03.155Z,4.70
2018-04-12T13:34:36.319Z,5.03
2018-04-12T13:37:04.130Z,4.70
2018-04-12T13:39:37.434Z,6.10
2018-04-12T13:42:04.952Z,4.30
2018-04-12T13:44:39.316Z,4.67
2018-04-12T13:47:07.025Z,4.70
2018-04-12T13:49:35.393Z,5.07
2018-04-12T13:52:02.934Z,4.43
2018-04-12T13:54:30.465Z,4.80
2018-04-12T13:57:03.819Z,5.13
2018-04-12T13:59:37.273Z,5.17
2018-04-12T14:02:04.898Z,4.90
2018-04-12T14:04:38.369Z,4.37
2018-04-12T14:07:06.136Z,4.57
2018-04-12T14:09:39.786Z,4.67
2018-04-12T14:12:07.420Z,5.13
2018-04-12T14:14:41.329Z,4.40
2018-04-12T14:17:09.609Z,5.33
2018-04-12T14:19:42.927Z,4.60
2018-04-12T14:22:16.200Z,4.10
2018-04-12T14:24:44.489Z,5.07
2018-04-12T14:27:12.096Z,5.27
2018-04-12T14:29:39.848Z,4.50
2018-04-12T14:32:13.444Z,4.57
2018-04-12T14:34:41.186Z,4.70
2018-04-12T14:37:09.092Z,4.90
2018-04-12T14:39:36.604Z,4.43
2018-04-12T14:42:04.179Z,4.33
2018-04-12T14:44:37.516Z,4.20
2018-04-12T14:47:05.131Z,4.27
2018-04-12T14:49:32.667Z,4.50
2018-04-12T14:52:00.939Z,4.77
2018-04-12T14:54:35.311Z,4.57
2018-04-12T14:57:02.907Z,4.40
2018-04-12T14:59:30.823Z,5.10
2018-04-12T15:02:10.222Z,4.43
2018-04-12T15:04:44.417Z,5.03
2018-04-12T15:07:17.860Z,4.90
2018-04-12T15:09:45.455Z,4.37
2018-04-12T15:12:12.959Z,4.80
2018-04-12T15:14:41.283Z,5.83
2018-04-12T15:17:14.633Z,7.07
2018-04-12T15:19:48.099Z,7.43
2018-04-12T15:22:16.849Z,7.57
2018-04-12T15:24:44.562Z,8.60
2018-04-12T15:27:23.526Z,7.93
2018-04-12T15:29:52.020Z,9.63
2018-04-12T15:32:19.638Z,9.50
2018-04-12T15:34:47.901Z,9.33
2018-04-12T15:37:15.785Z,9.37
2018-04-12T15:39:44.209Z,9.17
2018-04-12T15:42:11.738Z,10.30
2018-04-12T15:44:39.251Z,9.47
2018-04-12T15:47:06.790Z,9.47
2018-04-12T15:49:34.690Z,9.63
2018-04-12T15:52:02.290Z,10.70
2018-04-12T15:54:35.510Z,10.70
2018-04-12T15:57:03.074Z,9.80
2018-04-12T15:59:42.189Z,10.33
2018-04-12T16:02:09.755Z,10.53
2018-04-12T16:04:42.895Z,9.00
2018-04-12T16:07:22.124Z,9.70
2018-04-12T16:09:49.634Z,10.20
2018-04-12T16:12:17.172Z,9.90
2018-04-12T16:14:44.928Z,10.67
2018-04-12T16:17:12.563Z,10.23
2018-04-12T16:19:40.107Z,11.30
2018-04-12T16:22:07.691Z,11.03
2018-04-12T16:24:35.306Z,11.47
2018-04-12T16:27:03.035Z,11.97
2018-04-12T16:29:30.937Z,9.57
2018-04-12T16:32:04.480Z,11.10
2018-04-12T16:34:32.364Z,11.03
2018-04-12T16:37:00.242Z,11.23
2018-04-12T16:39:27.903Z,10.23
2018-04-12T16:42:01.359Z,11.70
2018-04-12T16:44:35.558Z,11.07
2018-04-12T16:47:03.338Z,13.00
2018-04-12T16:49:42.461Z,12.37
2018-04-12T16:52:21.670Z,13.67
2018-04-12T16:54:49.724Z,12.80
2018-04-12T16:57:23.737Z,12.77
2018-04-12T16:59:57.250Z,13.40
2018-04-12T17:02:24.807Z,12.80
2018-04-12T17:04:52.357Z,13.97
2018-04-12T17:07:26.725Z,13.10
2018-04-12T17:10:01.098Z,13.63
2018-04-12T17:12:34.539Z,11.47
2018-04-12T17:15:02.691Z,12.27
2018-04-12T17:17:30.226Z,13.30
2018-04-12T17:19:57.766Z,13.43
2018-04-12T17:22:26.305Z,13.47
2018-04-12T17:24:59.922Z,13.27
2018-04-12T17:27:33.074Z,12.77
2018-04-12T17:30:07.226Z,14.20
2018-04-12T17:32:34.975Z,14.00
2018-04-12T17:35:13.992Z,15.47
2018-04-12T17:37:41.626Z,14.07
2018-04-12T17:40:09.145Z,14.10
2018-04-12T17:42:36.666Z,14.43
2018-04-12T17:45:10.247Z,15.23
2018-04-12T17:47:43.610Z,14.20
2018-04-12T17:50:11.197Z,16.53
2018-04-12T17:52:44.955Z,14.13
2018-04-12T17:55:12.470Z,15.93
2018-04-12T17:57:40.766Z,14.97
2018-04-12T18:00:08.435Z,13.90
2018-04-12T18:02:36.767Z,13.80
2018-04-12T18:05:04.299Z,15.73
2018-04-12T18:07:32.592Z,16.73
2018-04-12T18:10:06.095Z,16.33
2018-04-12T18:12:34.112Z,16.33
2018-04-12T18:15:01.631Z,16.77
2018-04-12T18:17:29.219Z,17.93
2018-04-12T18:20:02.807Z,17.30
2018-04-12T18:22:30.331Z,18.73
2018-04-12T18:24:57.863Z,17.57
2018-04-12T18:27:25.422Z,17.77
2018-04-12T18:29:52.948Z,18.37
2018-04-12T18:32:20.502Z,18.00
2018-04-12T18:35:05.619Z,17.83
2018-04-12T18:37:33.148Z,18.23
2018-04-12T18:40:00.742Z,19.37
2018-04-12T18:42:28.294Z,19.50
2018-04-12T18:45:08.739Z,20.10
2018-04-12T18:47:37.101Z,18.73
2018-04-12T18:50:12.192Z,21.33
2018-04-12T18:52:39.965Z,20.37
2018-04-12T18:55:08.473Z,20.27
2018-04-12T18:57:36.125Z,20.37
2018-04-12T19:00:03.664Z,19.77
2018-04-12T19:02:36.957Z,19.30
2018-04-12T19:05:10.203Z,19.53
2018-04-12T19:07:37.722Z,18.77
2018-04-12T19:10:06.540Z,19.70
2018-04-12T19:12:39.979Z,20.37
2018-04-12T19:15:07.568Z,20.47
2018-04-12T19:17:41.432Z,19.80
2018-04-12T19:20:14.870Z,20.03
2018-04-12T19:22:42.407Z,20.60
2018-04-12T19:25:11.553Z,21.07
2018-04-12T19:27:44.984Z,17.20
2018-04-12T19:30:12.915Z,20.57
2018-04-12T19:32:40.592Z,18.67
2018-04-12T19:35:08.152Z,20.33
2018-04-12T19:37:42.410Z,20.80
2018-04-12T19:40:10.295Z,20.87
2018-04-12T19:42:38.049Z,21.47
2018-04-12T19:45:05.606Z,22.60
2018-04-12T19:47:33.357Z,22.50
2018-04-12T19:50:12.418Z,22.07
2018-04-12T19:52:45.573Z,23.37
2018-04-12T19:55:19.576Z,24.00
2018-04-12T19:57:53.217Z,20.20
2018-04-12T20:00:20.748Z,22.87
2018-04-12T20:02:48.321Z,18.77
2018-04-12T20:05:21.621Z,23.20
2018-04-12T20:08:01.052Z,19.73
2018-04-12T20:10:28.595Z,23.93
2018-04-12T20:12:56.898Z,25.60
2018-04-12T20:15:24.460Z,23.23
2018-04-12T20:17:51.971Z,24.97
2018-04-12T20:20:25.346Z,21.37
2018-04-12T20:22:53.087Z,23.40
2018-04-12T20:25:20.643Z,25.20
2018-04-12T20:27:53.915Z,24.30
2018-04-12T20:30:21.429Z,24.73
2018-04-12T20:32:49.151Z,20.17
2018-04-12T20:35:16.838Z,25.20
2018-04-12T20:37:50.902Z,22.93
2018-04-12T20:40:25.757Z,25.33
2018-04-12T20:42:53.419Z,26.13
2018-04-12T20:45:21.107Z,26.43
2018-04-12T20:47:48.902Z,22.63
2018-04-12T20:50:16.477Z,27.10
2018-04-12T20:52:44.849Z,28.07
2018-04-12T20:55:18.606Z,27.23
2018-04-12T20:57:46.170Z,26.93
2018-04-12T21:00:13.918Z,21.47
2018-04-12T21:02:47.228Z,27.43
2018-04-12T21:05:14.758Z,20.07
2018-04-12T21:07:48.939Z,23.30
2018-04-12T21:10:16.977Z,29.73
2018-04-12T21:12:44.498Z,27.70
2018-04-12T21:15:12.156Z,20.87
2018-04-12T21:17:42.770Z,24.37
2018-04-12T21:20:16.797Z,24.87
2018-04-12T21:22:56.634Z,26.47
2018-04-12T21:25:24.268Z,27.53
2018-04-12T21:27:57.669Z,22.80
2018-04-12T21:30:25.658Z,29.60
2018-04-12T21:32:54.035Z,28.47
2018-04-12T21:35:33.066Z,25.80
2018-04-12T21:38:00.715Z,28.97
2018-04-12T21:40:28.217Z,29.67
2018-04-12T21:42:56.638Z,27.17
2018-04-12T21:45:24.248Z,23.77
2018-04-12T21:47:51.785Z,27.30
2018-04-12T21:50:19.283Z,25.73
2018-04-12T21:52:52.953Z,30.27
2018-04-12T21:55:20.585Z,29.97
2018-04-12T21:57:48.914Z,30.63
2018-04-12T22:00:22.294Z,31.13
2018-04-12T22:02:49.872Z,30.37
2018-04-12T22:05:29.812Z,23.83
2018-04-12T22:07:57.355Z,29.03
2018-04-12T22:10:24.858Z,30.00
2018-04-12T22:12:52.411Z,27.27
2018-04-12T22:15:19.916Z,31.60
2018-04-12T22:17:48.357Z,26.83
2018-04-12T22:20:15.870Z,30.50
2018-04-12T22:22:44.105Z,27.87
2018-04-12T22:25:11.604Z,28.30
2018-04-12T22:27:39.148Z,29.40
2018-04-12T22:30:06.813Z,30.47
2018-04-12T22:32:34.561Z,31.37
2018-04-12T22:35:02.780Z,30.93
2018-04-12T22:37:31.073Z,30.63
2018-04-12T22:39:59.382Z,30.07
2018-04-12T22:42:32.747Z,27.60
2018-04-12T22:45:00.284Z,29.73
2018-04-12T22:47:27.801Z,30.63
2018-04-12T22:50:00.908Z,31.60
2018-04-12T22:52:28.714Z,26.40
2018-04-12T22:54:57.063Z,31.17
2018-04-12T22:57:30.485Z,29.37
2018-04-12T23:00:04.464Z,29.70
2018-04-12T23:02:31.971Z,30.87
2018-04-12T23:05:06.149Z,31.97
2018-04-12T23:07:33.642Z,30.00
2018-04-12T23:10:01.157Z,27.93
2018-04-12T23:12:34.445Z,30.23
2018-04-12T23:15:07.826Z,27.30
2018-04-12T23:17:35.892Z,29.63
2018-04-12T23:20:03.460Z,30.53
2018-04-12T23:22:30.983Z,21.20
2018-04-12T23:24:59.327Z,28.77
2018-04-12T23:27:38.612Z,32.90
2018-04-12T23:30:08.958Z,31.67
2018-04-12T23:32:36.468Z,29.87
2018-04-12T23:35:04.745Z,27.67
2018-04-12T23:37:32.305Z,32.27
2018-04-12T23:39:59.933Z,31.40
2018-04-12T23:42:27.604Z,31.63
2018-04-12T23:44:55.124Z,29.90
2018-04-12T23:47:22.622Z,29.73
2018-04-12T23:49:56.028Z,31.97
2018-04-12T23:52:23.540Z,32.93
2018-04-12T23:54:51.075Z,29.67
2018-04-12T23:57:24.560Z,30.87
2018-04-12T23:59:52.091Z,27.03
